createdAt,value
2022-08-26T00:01:53.879Z,101821.75
2022-08-26T00:04:21.995Z,101819.72
2022-08-26T00:06:49.397Z,101826.31
2022-08-26T00:09:16.984Z,101816.25
2022-08-26T00:11:45.457Z,101818.28
2022-08-26T00:14:13.972Z,101817.72
2022-08-26T00:16:48.093Z,101814.84
2022-08-26T00:19:18.130Z,101815.09
2022-08-26T00:21:46.627Z,101801.00
2022-08-26T00:24:16.535Z,101803.31
2022-08-26T00:26:44.805Z,101811.66
2022-08-26T00:29:12.549Z,101808.78
2022-08-26T00:31:40.818Z,101809.09
2022-08-26T00:34:09.557Z,101805.34
2022-08-26T00:36:39.774Z,101808.63
2022-08-26T00:39:08.846Z,101807.91
2022-08-26T00:41:38.271Z,101808.56
2022-08-26T00:44:06.932Z,101804.53
2022-08-26T00:46:38.568Z,101807.91
2022-08-26T00:49:22.777Z,101803.03
2022-08-26T00:51:52.425Z,101814.13
2022-08-26T00:54:21.365Z,101794.84
2022-08-26T00:57:16.400Z,101811.81
2022-08-26T01:00:04.212Z,101797.69
2022-08-26T01:02:32.337Z,101800.53
2022-08-26T01:05:01.781Z,101803.88
2022-08-26T01:07:31.879Z,101806.03
2022-08-26T01:10:03.894Z,101803.75
2022-08-26T01:12:33.640Z,101800.00
2022-08-26T01:15:02.229Z,101799.34
2022-08-26T01:17:29.531Z,101808.34
2022-08-26T01:20:04.038Z,101808.31
2022-08-26T01:22:43.629Z,101811.63
2022-08-26T01:25:11.316Z,101812.00
2022-08-26T01:27:38.886Z,101815.66
2022-08-26T01:30:06.392Z,101807.88
2022-08-26T01:32:34.538Z,101822.38
2022-08-26T01:35:02.147Z,101818.47
2022-08-26T01:37:34.979Z,101806.00
2022-08-26T01:40:02.768Z,101814.78
2022-08-26T01:42:30.074Z,101812.19
2022-08-26T01:45:09.963Z,101814.75
2022-08-26T01:47:38.000Z,101810.09
2022-08-26T01:50:07.700Z,101806.91
2022-08-26T01:52:37.458Z,101807.56
2022-08-26T01:55:05.347Z,101815.81
2022-08-26T01:57:34.796Z,101803.97
2022-08-26T02:00:02.857Z,101796.72
2022-08-26T02:02:40.891Z,101803.13
2022-08-26T02:05:14.565Z,101803.97
2022-08-26T02:07:42.175Z,101808.38
2022-08-26T02:10:09.703Z,101811.41
2022-08-26T02:12:37.436Z,101801.66
2022-08-26T02:15:06.646Z,101799.72
2022-08-26T02:17:37.692Z,101799.56
2022-08-26T02:20:06.670Z,101804.56
2022-08-26T02:22:41.606Z,101801.69
2022-08-26T02:25:32.563Z,101794.41
2022-08-26T02:28:00.228Z,101793.78
2022-08-26T02:30:29.954Z,101791.34
2022-08-26T02:32:58.835Z,101783.56
2022-08-26T02:35:26.175Z,101784.94
2022-08-26T02:37:54.137Z,101787.47
2022-08-26T02:40:23.169Z,101788.25
2022-08-26T02:42:53.062Z,101780.81
2022-08-26T02:45:23.834Z,101772.91
2022-08-26T02:47:51.591Z,101783.50
2022-08-26T02:50:20.228Z,101783.00
2022-08-26T02:52:48.543Z,101780.28
2022-08-26T02:55:16.181Z,101771.91
2022-08-26T02:57:43.617Z,101763.53
2022-08-26T03:00:12.558Z,101755.81
2022-08-26T03:02:40.306Z,101765.13
2022-08-26T03:05:07.900Z,101761.94
2022-08-26T03:07:35.446Z,101757.91
2022-08-26T03:10:08.768Z,101768.59
2022-08-26T03:12:37.137Z,101766.22
2022-08-26T03:15:16.430Z,101758.53
2022-08-26T03:17:46.445Z,101757.31
2022-08-26T03:20:15.568Z,101759.28
2022-08-26T03:22:45.223Z,101756.41
2022-08-26T03:25:14.964Z,101756.41
2022-08-26T03:27:43.026Z,101751.16
2022-08-26T03:30:29.723Z,101756.06
2022-08-26T03:32:57.684Z,101749.44
2022-08-26T03:35:25.839Z,101751.03
2022-08-26T03:37:53.618Z,101757.91
2022-08-26T03:40:21.138Z,101759.59
2022-08-26T03:42:50.383Z,101753.44
2022-08-26T03:45:18.481Z,101761.91
2022-08-26T03:47:46.735Z,101767.50
2022-08-26T03:50:15.959Z,101758.59
2022-08-26T03:52:44.146Z,101758.09
2022-08-26T03:55:11.557Z,101757.22
2022-08-26T03:57:39.395Z,101754.63
2022-08-26T04:00:08.420Z,101754.88
2022-08-26T04:02:35.972Z,101751.97
2022-08-26T04:05:03.240Z,101750.50
2022-08-26T04:07:31.986Z,101748.91
2022-08-26T04:10:00.710Z,101746.78
2022-08-26T04:12:27.967Z,101747.25
2022-08-26T04:14:55.525Z,101747.91
2022-08-26T04:17:26.324Z,101745.72
2022-08-26T04:19:53.830Z,101745.38
2022-08-26T04:22:24.229Z,101749.19
2022-08-26T04:24:52.822Z,101743.75
2022-08-26T04:27:20.530Z,101748.38
2022-08-26T04:29:49.805Z,101748.00
2022-08-26T04:32:18.828Z,101753.25
2022-08-26T04:34:46.312Z,101748.63
2022-08-26T04:37:13.741Z,101748.13
2022-08-26T04:39:40.976Z,101745.59
2022-08-26T04:42:08.466Z,101746.72
2022-08-26T04:44:36.646Z,101740.25
2022-08-26T04:47:04.749Z,101746.34
2022-08-26T04:49:35.471Z,101750.03
2022-08-26T04:52:03.854Z,101747.56
2022-08-26T04:54:32.193Z,101759.16
2022-08-26T04:56:59.827Z,101746.91
2022-08-26T04:59:27.157Z,101744.84
2022-08-26T05:01:59.733Z,101743.22
2022-08-26T05:04:27.243Z,101744.53
2022-08-26T05:06:59.241Z,101751.19
2022-08-26T05:09:30.522Z,101751.63
2022-08-26T05:11:57.836Z,101749.16
2022-08-26T05:14:25.530Z,101751.31
2022-08-26T05:16:54.032Z,101745.91
2022-08-26T05:19:21.377Z,101748.56
2022-08-26T05:21:49.402Z,101748.41
2022-08-26T05:24:17.778Z,101745.75
2022-08-26T05:26:45.490Z,101737.97
2022-08-26T05:29:13.077Z,101744.28
2022-08-26T05:31:40.304Z,101749.41
2022-08-26T05:34:08.591Z,101749.41
2022-08-26T05:36:36.961Z,101741.66
2022-08-26T05:39:05.101Z,101743.13
2022-08-26T05:41:36.637Z,101742.16
2022-08-26T05:44:07.961Z,101741.47
2022-08-26T05:46:36.689Z,101746.06
2022-08-26T05:49:05.033Z,101742.66
2022-08-26T05:51:33.658Z,101740.78
2022-08-26T05:54:04.060Z,101743.84
2022-08-26T05:56:31.649Z,101736.91
2022-08-26T05:58:59.769Z,101744.16
2022-08-26T06:01:27.992Z,101745.75
2022-08-26T06:03:56.875Z,101742.31
2022-08-26T06:06:31.408Z,101743.22
2022-08-26T06:09:00.024Z,101744.06
2022-08-26T06:11:29.187Z,101732.31
2022-08-26T06:14:03.124Z,101740.88
2022-08-26T06:16:31.954Z,101735.44
2022-08-26T06:18:59.392Z,101743.56
2022-08-26T06:21:28.561Z,101737.06
2022-08-26T06:24:15.781Z,101739.91
2022-08-26T06:26:47.024Z,101735.47
2022-08-26T06:29:24.362Z,101730.88
2022-08-26T06:31:53.172Z,101735.06
2022-08-26T06:34:20.516Z,101729.47
2022-08-26T06:36:49.317Z,101734.91
2022-08-26T06:39:20.617Z,101731.19
2022-08-26T06:41:48.172Z,101723.69
2022-08-26T06:44:18.500Z,101718.53
2022-08-26T06:46:46.247Z,101728.28
2022-08-26T06:49:17.801Z,101729.75
2022-08-26T06:51:45.031Z,101735.47
2022-08-26T06:54:12.611Z,101737.34
2022-08-26T06:56:42.742Z,101727.72
2022-08-26T06:59:11.213Z,101730.91
2022-08-26T07:01:43.024Z,101736.47
2022-08-26T07:04:12.437Z,101726.28
2022-08-26T07:06:41.024Z,101735.91
2022-08-26T07:09:12.605Z,101733.78
2022-08-26T07:11:41.898Z,101732.34
2022-08-26T07:14:09.165Z,101731.75
2022-08-26T07:16:36.471Z,101726.25
2022-08-26T07:19:10.862Z,101724.84
2022-08-26T07:21:40.449Z,101723.28
2022-08-26T07:24:08.470Z,101720.47
2022-08-26T07:26:39.145Z,101717.41
2022-08-26T07:29:12.569Z,101718.00
2022-08-26T07:31:42.822Z,101716.09
2022-08-26T07:34:10.967Z,101724.03
2022-08-26T07:36:38.286Z,101709.63
2022-08-26T07:39:06.270Z,101715.09
2022-08-26T07:41:34.006Z,101716.03
2022-08-26T07:44:01.476Z,101705.38
2022-08-26T07:46:30.202Z,101710.25
2022-08-26T07:48:58.560Z,101711.44
2022-08-26T07:51:26.363Z,101710.06
2022-08-26T07:53:54.423Z,101706.66
2022-08-26T07:56:23.355Z,101705.09
2022-08-26T07:58:51.990Z,101697.56
2022-08-26T08:01:23.997Z,101702.50
2022-08-26T08:03:52.463Z,101707.53
2022-08-26T08:06:20.585Z,101705.56
2022-08-26T08:08:48.337Z,101698.94
2022-08-26T08:11:22.323Z,101694.16
2022-08-26T08:13:56.153Z,101698.97
2022-08-26T08:16:26.006Z,101688.41
2022-08-26T08:18:53.727Z,101699.28
2022-08-26T08:21:23.800Z,101694.06
2022-08-26T08:23:56.180Z,101691.31
2022-08-26T08:26:24.541Z,101694.91
2022-08-26T08:28:54.496Z,101693.88
2022-08-26T08:31:45.078Z,101692.31
2022-08-26T08:34:10.713Z,101684.81
2022-08-26T08:36:38.011Z,101684.06
2022-08-26T08:39:06.508Z,101687.81
2022-08-26T08:41:39.827Z,101693.22
2022-08-26T08:44:15.566Z,101679.25
2022-08-26T08:46:44.589Z,101684.03
2022-08-26T08:49:13.947Z,101680.66
2022-08-26T08:51:45.822Z,101683.31
2022-08-26T08:54:14.244Z,101689.94
2022-08-26T08:56:44.711Z,101694.91
2022-08-26T08:59:17.081Z,101695.69
2022-08-26T09:02:10.221Z,101692.56
2022-08-26T09:04:54.303Z,101687.16
2022-08-26T09:07:36.540Z,101687.22
2022-08-26T09:10:13.780Z,101691.41
2022-08-26T09:12:42.983Z,101688.66
2022-08-26T09:15:19.308Z,101678.25
2022-08-26T09:17:46.811Z,101671.19
2022-08-26T09:20:14.093Z,101678.56
2022-08-26T09:22:44.130Z,101677.69
2022-08-26T09:25:13.076Z,101666.59
2022-08-26T09:27:43.120Z,101660.56
2022-08-26T09:30:12.429Z,101667.44
2022-08-26T09:32:40.535Z,101663.09
2022-08-26T09:35:10.988Z,101657.78
2022-08-26T09:40:27.484Z,101659.50
2022-08-26T09:43:13.589Z,101656.78
2022-08-26T09:45:50.192Z,101661.31
2022-08-26T09:48:47.099Z,101660.50
2022-08-26T09:51:24.911Z,101659.44
2022-08-26T09:53:56.700Z,101660.28
2022-08-26T09:56:25.939Z,101656.47
2022-08-26T09:58:55.860Z,101652.97
2022-08-26T10:01:23.518Z,101643.50
2022-08-26T10:03:51.642Z,101644.88
2022-08-26T10:06:21.194Z,101642.66
2022-08-26T10:08:54.151Z,101643.28
2022-08-26T10:11:33.551Z,101644.53
2022-08-26T10:14:25.034Z,101644.50
2022-08-26T10:16:56.531Z,101640.94
2022-08-26T10:19:55.508Z,101636.00
2022-08-26T10:22:27.031Z,101650.13
2022-08-26T10:24:57.052Z,101640.41
2022-08-26T10:27:31.725Z,101638.91
2022-08-26T10:30:04.304Z,101639.19
2022-08-26T10:32:35.354Z,101642.31
2022-08-26T10:35:10.141Z,101633.41
2022-08-26T10:37:39.418Z,101629.78
2022-08-26T10:40:12.825Z,101628.78
2022-08-26T10:42:46.625Z,101633.53
2022-08-26T10:45:20.209Z,101634.28
2022-08-26T10:47:59.866Z,101627.16
2022-08-26T10:50:32.323Z,101642.38
2022-08-26T10:53:05.706Z,101635.97
2022-08-26T10:55:40.904Z,101629.47
2022-08-26T10:58:11.624Z,101634.81
2022-08-26T11:01:02.529Z,101620.34
2022-08-26T11:03:46.877Z,101627.75
2022-08-26T11:06:20.419Z,101622.75
2022-08-26T11:08:48.789Z,101620.50
2022-08-26T11:11:42.731Z,101615.81
2022-08-26T11:14:10.043Z,101608.16
2022-08-26T11:16:43.460Z,101615.66
2022-08-26T11:19:50.881Z,101609.00
2022-08-26T11:22:24.676Z,101602.50
2022-08-26T11:24:55.619Z,101606.50
2022-08-26T11:27:23.535Z,101599.16
2022-08-26T11:29:57.421Z,101604.94
2022-08-26T11:32:34.785Z,101601.13
2022-08-26T11:35:07.079Z,101600.56
2022-08-26T11:37:41.213Z,101607.44
2022-08-26T11:40:11.410Z,101598.22
2022-08-26T11:42:49.540Z,101607.91
2022-08-26T11:45:31.380Z,101603.34
2022-08-26T11:47:59.061Z,101601.63
2022-08-26T11:50:27.985Z,101604.28
2022-08-26T11:52:57.330Z,101598.16
2022-08-26T11:55:24.681Z,101603.06
2022-08-26T11:57:54.195Z,101607.59
2022-08-26T12:00:23.507Z,101594.16
2022-08-26T12:02:52.496Z,101594.06
2022-08-26T12:05:30.874Z,101583.78
2022-08-26T12:08:06.379Z,101586.38
2022-08-26T12:10:34.517Z,101589.16
2022-08-26T12:13:02.915Z,101585.66
2022-08-26T12:15:31.747Z,101587.75
2022-08-26T12:18:15.985Z,101580.97
2022-08-26T12:20:48.187Z,101584.66
2022-08-26T12:23:24.704Z,101584.28
2022-08-26T12:25:52.841Z,101588.91
2022-08-26T12:28:21.649Z,101582.94
2022-08-26T12:31:01.066Z,101578.44
2022-08-26T12:33:28.929Z,101574.56
2022-08-26T12:35:57.036Z,101578.13
2022-08-26T12:39:01.871Z,101575.44
2022-08-26T12:41:50.210Z,101571.38
2022-08-26T12:44:36.770Z,101570.44
2022-08-26T12:47:08.472Z,101573.16
2022-08-26T12:49:37.237Z,101565.03
2022-08-26T12:52:05.580Z,101563.13
2022-08-26T12:54:56.546Z,101568.63
2022-08-26T12:57:29.545Z,101560.34
2022-08-26T13:00:15.830Z,101565.81
2022-08-26T13:02:46.403Z,101564.25
2022-08-26T13:05:24.626Z,101556.09
2022-08-26T13:08:10.825Z,101563.16
2022-08-26T13:10:39.754Z,101561.19
2022-08-26T13:13:07.223Z,101562.59
2022-08-26T13:15:34.825Z,101562.41
2022-08-26T13:18:03.477Z,101560.38
2022-08-26T13:20:32.389Z,101557.22
2022-08-26T13:23:00.187Z,101557.75
2022-08-26T13:25:27.667Z,101551.81
2022-08-26T13:27:55.425Z,101545.63
2022-08-26T13:30:22.832Z,101549.25
2022-08-26T13:32:52.348Z,101547.22
2022-08-26T13:35:20.881Z,101552.00
2022-08-26T13:37:48.362Z,101549.72
2022-08-26T13:40:16.166Z,101557.22
2022-08-26T13:42:49.906Z,101556.09
2022-08-26T13:45:17.704Z,101544.72
2022-08-26T13:47:45.011Z,101550.44
2022-08-26T13:50:12.432Z,101548.78
2022-08-26T13:52:39.868Z,101552.88
2022-08-26T13:55:08.045Z,101543.66
2022-08-26T13:57:35.364Z,101547.53
2022-08-26T14:00:03.705Z,101546.88
2022-08-26T14:02:36.552Z,101545.44
2022-08-26T14:05:04.762Z,101545.09
2022-08-26T14:07:32.592Z,101540.28
2022-08-26T14:10:00.042Z,101548.09
2022-08-26T14:12:27.451Z,101548.72
2022-08-26T14:14:55.089Z,101545.44
2022-08-26T14:17:23.273Z,101540.34
2022-08-26T14:19:51.344Z,101528.97
2022-08-26T14:22:19.840Z,101527.53
2022-08-26T14:24:47.918Z,101528.63
2022-08-26T14:27:15.318Z,101522.38
2022-08-26T14:29:42.808Z,101526.34
2022-08-26T14:32:17.695Z,101520.09
2022-08-26T14:34:48.865Z,101512.84
2022-08-26T14:37:16.337Z,101506.41
2022-08-26T14:39:44.350Z,101495.50
2022-08-26T14:42:15.192Z,101491.88
2022-08-26T14:44:46.268Z,101499.19
2022-08-26T14:47:14.003Z,101498.56
2022-08-26T14:49:41.310Z,101491.38
2022-08-26T14:52:08.863Z,101494.50
2022-08-26T14:54:37.515Z,101494.63
2022-08-26T14:57:07.272Z,101492.47
2022-08-26T14:59:38.685Z,101492.53
2022-08-26T15:02:07.364Z,101491.19
2022-08-26T15:04:34.914Z,101497.94
2022-08-26T15:07:03.390Z,101490.91
2022-08-26T15:09:32.882Z,101486.13
2022-08-26T15:12:00.340Z,101485.50
2022-08-26T15:14:32.714Z,101481.84
2022-08-26T15:17:00.719Z,101474.16
2022-08-26T15:19:28.085Z,101478.84
2022-08-26T15:21:55.554Z,101477.78
2022-08-26T15:24:24.205Z,101467.78
2022-08-26T15:26:52.036Z,101469.91
2022-08-26T15:29:19.749Z,101463.81
2022-08-26T15:31:47.733Z,101460.25
2022-08-26T15:34:16.988Z,101461.56
2022-08-26T15:36:46.479Z,101461.59
2022-08-26T15:39:14.911Z,101459.13
2022-08-26T15:41:42.277Z,101459.19
2022-08-26T15:44:10.281Z,101461.56
2022-08-26T15:46:38.713Z,101449.75
2022-08-26T15:49:06.652Z,101450.28
2022-08-26T15:51:45.745Z,101457.72
2022-08-26T15:54:14.499Z,101449.44
2022-08-26T15:56:43.495Z,101447.94
2022-08-26T15:59:11.995Z,101443.94
2022-08-26T16:01:39.529Z,101441.66
2022-08-26T16:04:07.472Z,101447.38
2022-08-26T16:06:35.944Z,101443.59
2022-08-26T16:09:04.394Z,101433.00
2022-08-26T16:11:31.802Z,101432.34
2022-08-26T16:13:59.257Z,101435.53
2022-08-26T16:16:27.150Z,101431.59
2022-08-26T16:18:54.934Z,101435.81
2022-08-26T16:21:24.746Z,101427.19
2022-08-26T16:23:52.340Z,101427.19
2022-08-26T16:26:21.889Z,101427.75
2022-08-26T16:28:49.260Z,101431.63
2022-08-26T16:31:16.755Z,101421.09
2022-08-26T16:33:44.461Z,101418.59
2022-08-26T16:36:12.389Z,101427.97
2022-08-26T16:38:40.090Z,101419.13
2022-08-26T16:41:07.897Z,101421.31
2022-08-26T16:43:35.427Z,101420.22
2022-08-26T16:46:05.509Z,101411.88
2022-08-26T16:48:33.289Z,101415.22
2022-08-26T16:51:00.615Z,101412.66
2022-08-26T16:53:28.149Z,101411.94
2022-08-26T16:55:55.643Z,101412.56
2022-08-26T16:58:23.107Z,101411.19
2022-08-26T17:00:50.475Z,101411.31
2022-08-26T17:03:18.016Z,101412.16
2022-08-26T17:05:45.301Z,101399.63
2022-08-26T17:08:24.256Z,101405.06
2022-08-26T17:10:58.701Z,101409.59
2022-08-26T17:13:34.546Z,101408.47
2022-08-26T17:16:07.636Z,101411.59
2022-08-26T17:18:36.136Z,101417.88
2022-08-26T17:21:04.989Z,101410.50
2022-08-26T17:23:32.546Z,101413.97
2022-08-26T17:26:00.005Z,101403.84
2022-08-26T17:28:27.352Z,101409.88
2022-08-26T17:30:56.229Z,101415.69
2022-08-26T17:33:24.794Z,101408.72
2022-08-26T17:35:53.223Z,101421.31
2022-08-26T17:38:21.464Z,101407.97
2022-08-26T17:40:51.640Z,101413.91
2022-08-26T17:43:19.185Z,101416.56
2022-08-26T17:45:46.878Z,101426.44
2022-08-26T17:48:14.393Z,101425.81
2022-08-26T17:50:43.081Z,101423.78
2022-08-26T17:53:18.804Z,101428.47
2022-08-26T17:55:47.166Z,101426.50
2022-08-26T17:58:15.199Z,101433.31
2022-08-26T18:00:47.771Z,101433.78
2022-08-26T18:03:15.388Z,101435.50
2022-08-26T18:05:42.897Z,101436.00
2022-08-26T18:08:10.338Z,101437.38
2022-08-26T18:10:37.675Z,101432.97
2022-08-26T18:13:05.065Z,101433.31
2022-08-26T18:15:32.427Z,101436.31
2022-08-26T18:18:00.047Z,101436.09
2022-08-26T18:20:27.364Z,101439.56
2022-08-26T18:22:54.647Z,101448.03
2022-08-26T18:25:22.083Z,101454.16
2022-08-26T18:27:49.595Z,101444.81
2022-08-26T18:30:20.724Z,101454.91
2022-08-26T18:32:49.134Z,101457.25
2022-08-26T18:35:16.947Z,101454.50
2022-08-26T18:37:44.610Z,101463.06
2022-08-26T18:40:13.037Z,101457.09
2022-08-26T18:42:41.447Z,101455.75
2022-08-26T18:45:09.617Z,101457.19
2022-08-26T18:47:43.763Z,101464.56
2022-08-26T18:50:11.249Z,101459.91
2022-08-26T18:52:38.859Z,101468.72
2022-08-26T18:55:06.369Z,101467.00
2022-08-26T18:57:34.097Z,101459.72
2022-08-26T19:00:01.785Z,101471.44
2022-08-26T19:02:29.308Z,101467.63
2022-08-26T19:04:57.971Z,101474.47
2022-08-26T19:07:25.513Z,101467.66
2022-08-26T19:09:54.066Z,101470.41
2022-08-26T19:12:21.847Z,101473.16
2022-08-26T19:14:49.267Z,101475.25
2022-08-26T19:17:16.645Z,101477.03
2022-08-26T19:19:43.875Z,101480.03
2022-08-26T19:22:13.059Z,101471.53
2022-08-26T19:24:40.436Z,101462.94
2022-08-26T19:27:10.631Z,101473.22
2022-08-26T19:29:40.528Z,101473.59
2022-08-26T19:32:08.558Z,101474.97
2022-08-26T19:34:36.449Z,101473.91
2022-08-26T19:37:03.745Z,101478.06
2022-08-26T19:39:31.505Z,101470.16
2022-08-26T19:42:00.407Z,101470.34
2022-08-26T19:44:46.078Z,101471.88
2022-08-26T19:47:14.107Z,101472.91
2022-08-26T19:49:41.549Z,101478.03
2022-08-26T19:52:09.056Z,101472.56
2022-08-26T19:54:36.765Z,101475.31
2022-08-26T19:57:05.116Z,101470.44
2022-08-26T19:59:33.295Z,101473.13
2022-08-26T20:02:01.988Z,101471.13
2022-08-26T20:04:30.288Z,101471.50
2022-08-26T20:07:00.468Z,101472.47
2022-08-26T20:09:32.695Z,101480.94
2022-08-26T20:12:00.615Z,101478.31
2022-08-26T20:14:27.869Z,101469.69
2022-08-26T20:16:55.673Z,101476.53
2022-08-26T20:19:41.812Z,101480.00
2022-08-26T20:22:09.250Z,101478.47
2022-08-26T20:24:37.131Z,101478.19
2022-08-26T20:27:07.724Z,101483.97
2022-08-26T20:29:36.343Z,101482.59
2022-08-26T20:32:06.181Z,101484.41
2022-08-26T20:34:34.098Z,101485.13
2022-08-26T20:37:02.185Z,101484.75
2022-08-26T20:39:30.001Z,101485.44
2022-08-26T20:41:57.858Z,101485.91
2022-08-26T20:44:25.799Z,101495.03
2022-08-26T20:46:53.227Z,101489.41
2022-08-26T20:49:20.981Z,101489.88
2022-08-26T20:51:51.514Z,101497.00
2022-08-26T20:54:19.864Z,101493.31
2022-08-26T20:56:47.715Z,101494.31
2022-08-26T20:59:15.132Z,101491.72
2022-08-26T21:01:42.903Z,101488.72
2022-08-26T21:04:12.144Z,101483.66
2022-08-26T21:06:40.044Z,101490.72
2022-08-26T21:09:10.960Z,101488.59
2022-08-26T21:11:38.842Z,101482.09
2022-08-26T21:14:16.766Z,101482.97
2022-08-26T21:16:46.052Z,101483.97
2022-08-26T21:19:15.299Z,101483.88
2022-08-26T21:21:42.876Z,101486.88
2022-08-26T21:24:10.756Z,101487.22
2022-08-26T21:26:38.304Z,101490.66
2022-08-26T21:29:06.841Z,101486.56
2022-08-26T21:31:42.240Z,101489.47
2022-08-26T21:34:13.397Z,101488.72
2022-08-26T21:36:40.767Z,101484.47
2022-08-26T21:39:11.756Z,101487.34
2022-08-26T21:41:40.546Z,101481.50
2022-08-26T21:44:07.934Z,101489.44
2022-08-26T21:46:37.371Z,101485.28
2022-08-26T21:49:07.564Z,101491.53
2022-08-26T21:51:36.248Z,101493.38
2022-08-26T21:54:09.983Z,101483.88
2022-08-26T21:56:40.818Z,101485.06
2022-08-26T21:59:08.489Z,101492.38
2022-08-26T22:01:36.242Z,101481.13
2022-08-26T22:04:04.719Z,101485.38
2022-08-26T22:06:33.442Z,101479.72
2022-08-26T22:09:01.260Z,101475.88
2022-08-26T22:11:28.745Z,101478.19
2022-08-26T22:13:57.034Z,101468.75
2022-08-26T22:16:24.771Z,101468.13
2022-08-26T22:18:53.665Z,101471.84
2022-08-26T22:21:24.348Z,101466.63
2022-08-26T22:23:51.713Z,101462.41
2022-08-26T22:26:25.628Z,101465.75
2022-08-26T22:28:58.426Z,101470.56
2022-08-26T22:31:28.073Z,101466.38
2022-08-26T22:34:10.318Z,101471.66
2022-08-26T22:36:43.079Z,101464.75
2022-08-26T22:39:15.381Z,101470.03
2022-08-26T22:41:43.803Z,101463.78
2022-08-26T22:44:12.021Z,101458.31
2022-08-26T22:46:40.122Z,101461.91
2022-08-26T22:49:08.970Z,101460.59
2022-08-26T22:51:36.523Z,101459.56
2022-08-26T22:54:04.152Z,101455.88
2022-08-26T22:56:31.515Z,101451.38
2022-08-26T22:58:58.843Z,101454.34
2022-08-26T23:01:26.456Z,101450.69
2022-08-26T23:03:53.906Z,101452.75
2022-08-26T23:06:21.325Z,101446.59
2022-08-26T23:08:49.541Z,101447.38
2022-08-26T23:11:17.565Z,101452.34
2022-08-26T23:13:44.881Z,101449.34
2022-08-26T23:16:12.798Z,101437.66
2022-08-26T23:18:40.932Z,101439.31
2022-08-26T23:21:09.361Z,101437.56
2022-08-26T23:23:38.105Z,101440.31
2022-08-26T23:26:06.596Z,101434.91
2022-08-26T23:28:34.931Z,101431.81
2022-08-26T23:31:02.409Z,101442.59
2022-08-26T23:33:49.709Z,101427.72
2022-08-26T23:36:18.484Z,101427.09
2022-08-26T23:38:52.755Z,101428.44
2022-08-26T23:41:24.236Z,101437.81
2022-08-26T23:43:52.101Z,101431.91
2022-08-26T23:46:19.864Z,101433.63
2022-08-26T23:48:48.000Z,101432.25
2022-08-26T23:51:34.081Z,101430.25
2022-08-26T23:54:01.565Z,101433.28
2022-08-26T23:56:29.281Z,101432.53
2022-08-26T23:58:56.774Z,101434.25
